Time;durP1;ratioP1;P1;durP2;ratioP2;P2;SDS_P1;SDS_P2;PMS_P1;PMS_P2;Temp;Humidity;BMP_temperature;BMP_pressure;BME280_temperature;BME280_humidity;BME280_pressure;Samples;Min_cycle;Max_cycle;Signal;HPM_P1;HPM_P2
2022/09/03 00:00:24;;;;;;;3.30;2.65;;;;;;;17.61;69.94;92631.94;2067546;69;20160;-75
2022/09/03 00:03:02;;;;;;;6.25;2.67;;;;;;;17.72;70.22;92633.72;2067577;69;20184;-74
2022/09/03 00:05:40;;;;;;;5.38;2.58;;;;;;;17.85;68.71;92629.19;2067566;69;20160;-76
2022/09/03 00:08:21;;;;;;;6.03;2.72;;;;;;;17.83;69.25;92629.13;2067548;69;20152;-73
2022/09/03 00:10:53;;;;;;;4.70;2.60;;;;;;;17.99;65.56;92624.69;2067445;69;20144;-74
2022/09/03 00:13:30;;;;;;;4.50;2.72;;;;;;;17.69;67.65;92630.09;2067382;69;20153;-74
2022/09/03 00:15:58;;;;;;;3.67;2.70;;;;;;;17.61;68.30;92629.09;2068209;69;20194;-72
2022/09/03 00:18:30;;;;;;;6.05;3.25;;;;;;;17.90;66.37;92614.41;2070869;69;20170;-76
2022/09/03 00:21:10;;;;;;;4.55;2.92;;;;;;;17.83;66.50;92609.22;2070819;69;20205;-73
2022/09/03 00:23:39;;;;;;;5.55;2.83;;;;;;;17.63;66.73;92609.22;2067658;69;20160;-74
2022/09/03 00:26:11;;;;;;;4.28;2.78;;;;;;;17.81;65.14;92595.63;2070636;69;20315;-74
2022/09/03 00:28:50;;;;;;;4.15;2.63;;;;;;;17.87;66.44;92612.16;2070444;69;20667;-74
2022/09/03 00:31:50;;;;;;;4.90;2.85;;;;;;;17.79;68.91;92629.72;2070858;69;20168;-72
2022/09/03 00:34:22;;;;;;;5.10;2.70;;;;;;;17.75;69.11;92616.09;2070740;69;20179;-73
2022/09/03 00:36:49;;;;;;;4.28;2.72;;;;;;;17.59;71.13;92611.94;2070809;69;20509;-76
2022/09/03 00:39:17;;;;;;;4.72;2.80;;;;;;;17.58;70.14;92616.91;2070790;69;20160;-72
2022/09/03 00:41:49;;;;;;;4.20;2.78;;;;;;;17.80;68.32;92624.75;2070870;69;20161;-74
2022/09/03 00:44:17;;;;;;;4.25;2.60;;;;;;;17.69;68.82;92638.63;2070766;69;20604;-75
2022/09/03 00:47:06;;;;;;;6.15;2.90;;;;;;;17.56;68.84;92636.75;2070883;69;20136;-73
2022/09/03 00:49:58;;;;;;;6.72;3.70;;;;;;;17.47;70.87;92627.22;2071289;69;20140;-73
2022/09/03 00:52:46;;;;;;;3.67;2.85;;;;;;;17.61;69.23;92623.41;2068339;69;20213;-72
2022/09/03 00:55:21;;;;;;;4.22;2.88;;;;;;;17.72;69.12;92617.38;2071735;69;20324;-72
2022/09/03 00:58:21;;;;;;;5.68;3.08;;;;;;;17.70;69.63;92617.31;2071939;69;20212;-72
2022/09/03 01:00:51;;;;;;;5.70;2.88;;;;;;;17.87;67.21;92612.91;2071917;69;20228;-72
2022/09/03 01:03:38;;;;;;;3.83;2.78;;;;;;;17.66;68.91;92610.75;2071891;69;20203;-73
2022/09/03 01:06:18;;;;;;;4.30;2.60;;;;;;;17.56;70.41;92610.44;2071670;69;20279;-73
2022/09/03 01:09:08;;;;;;;4.93;2.88;;;;;;;17.73;68.47;92598.16;2065591;69;20151;-73
2022/09/03 01:11:58;;;;;;;3.95;2.67;;;;;;;17.70;69.63;92600.22;2071780;69;20650;-76
2022/09/03 01:14:33;;;;;;;3.72;2.75;;;;;;;17.75;68.62;92589.72;2072004;69;20243;-73
2022/09/03 01:17:16;;;;;;;3.80;3.03;;;;;;;17.68;68.55;92590.88;2071535;69;20148;-75
2022/09/03 01:20:07;;;;;;;4.60;2.75;;;;;;;17.82;68.15;92584.94;2071462;69;20159;-74
2022/09/03 01:22:58;;;;;;;5.53;2.72;;;;;;;17.42;70.93;92582.94;2068545;69;20677;-73
2022/09/03 01:25:56;;;;;;;6.57;2.70;;;;;;;17.46;71.03;92585.19;2071881;69;20148;-74
2022/09/03 01:28:48;;;;;;;3.42;2.80;;;;;;;17.68;68.28;92583.06;2068625;69;20156;-73
2022/09/03 01:31:35;;;;;;;6.45;3.10;;;;;;;17.63;69.32;92584.34;2071649;69;20148;-73
2022/09/03 01:34:25;;;;;;;3.28;2.58;;;;;;;17.59;69.68;92578.50;2071471;69;20144;-72
2022/09/03 01:37:04;;;;;;;3.63;2.80;;;;;;;17.51;69.57;92587.50;2071078;69;20145;-72
2022/09/03 01:39:37;;;;;;;4.88;2.65;;;;;;;17.46;69.06;92594.47;2071390;69;20198;-72
2022/09/03 01:42:32;;;;;;;6.47;2.78;;;;;;;17.45;69.22;92595.09;2071507;69;20409;-74
2022/09/03 01:45:26;;;;;;;3.05;2.60;;;;;;;17.39;69.28;92607.00;2071685;69;20658;-74
2022/09/03 01:48:23;;;;;;;5.30;2.50;;;;;;;17.34;68.75;92601.84;2071902;69;20240;-74
2022/09/03 01:51:01;;;;;;;4.75;2.90;;;;;;;17.32;67.45;92604.63;2071736;69;20152;-74
2022/09/03 01:53:57;;;;;;;3.35;2.50;;;;;;;17.21;68.17;92624.19;2071565;69;20156;-73
2022/09/03 01:57:00;;;;;;;3.65;2.72;;;;;;;17.24;68.96;92622.88;2071650;69;20163;-74
2022/09/03 02:00:28;;;;;;;4.65;2.90;;;;;;;17.14;69.41;92622.53;2071966;69;20144;-74
2022/09/03 02:02:46;;;;;;;4.72;2.55;;;;;;;17.23;68.85;92626.38;2070293;69;20156;-75
2022/09/03 02:05:23;;;;;;;5.35;2.92;;;;;;;17.23;69.12;92620.69;2071275;69;20151;-74
2022/09/03 02:08:04;;;;;;;5.57;2.85;;;;;;;17.20;69.84;92617.03;2071558;69;20594;-73
2022/09/03 02:10:38;;;;;;;2.75;2.55;;;;;;;17.26;69.10;92617.25;2071445;69;20141;-75
2022/09/03 02:13:08;;;;;;;4.20;2.70;;;;;;;17.16;70.02;92616.91;2071249;69;20182;-75
2022/09/03 02:15:37;;;;;;;4.65;2.47;;;;;;;17.16;69.35;92621.84;2070830;69;20163;-74
2022/09/03 02:18:07;;;;;;;6.75;3.30;;;;;;;17.11;70.73;92626.69;2071105;69;20224;-76
2022/09/03 02:20:33;;;;;;;3.67;3.08;;;;;;;17.32;67.77;92616.00;2071067;69;20180;-75
2022/09/03 02:22:59;;;;;;;5.40;2.67;;;;;;;17.29;70.29;92623.75;2071236;69;20170;-75
2022/09/03 02:25:45;;;;;;;9.20;2.50;;;;;;;17.28;69.44;92622.28;2067584;69;20156;-77
2022/09/03 02:28:13;;;;;;;4.13;2.80;;;;;;;17.25;70.41;92624.31;2071273;69;20141;-75
2022/09/03 02:30:40;;;;;;;4.57;3.03;;;;;;;17.15;71.45;92626.09;2071054;69;20231;-77
2022/09/03 02:33:08;;;;;;;8.02;2.83;;;;;;;17.08;71.80;92630.09;2071224;69;20580;-73
2022/09/03 02:35:34;;;;;;;7.60;2.88;;;;;;;17.17;70.68;92618.34;2071108;69;20159;-76
2022/09/03 02:38:29;;;;;;;4.30;2.85;;;;;;;17.23;69.73;92624.28;2071283;69;20245;-76
2022/09/03 02:40:56;;;;;;;3.72;2.47;;;;;;;17.25;69.31;92617.91;2053427;70;20241;-76
2022/09/03 02:43:27;;;;;;;5.18;2.60;;;;;;;17.13;70.76;92618.19;2053634;69;20649;-75
2022/09/03 02:45:59;;;;;;;4.93;2.67;;;;;;;17.24;68.41;92620.03;2053757;70;20249;-76
2022/09/03 02:48:26;;;;;;;4.78;3.05;;;;;;;17.35;68.00;92617.53;2047933;70;20495;-76
2022/09/03 02:50:52;;;;;;;6.20;2.70;;;;;;;17.14;69.06;92613.25;2053829;69;20322;-75
2022/09/03 02:53:19;;;;;;;4.38;2.42;;;;;;;17.06;69.89;92607.28;2053861;69;20149;-73
2022/09/03 02:55:45;;;;;;;5.47;2.65;;;;;;;16.90;71.21;92613.84;2053378;70;20665;-75
2022/09/03 02:58:10;;;;;;;12.13;3.00;;;;;;;17.05;69.24;92622.91;2053614;70;20142;-74
2022/09/03 03:00:38;;;;;;;5.43;2.80;;;;;;;16.97;70.02;92620.50;2053662;69;20185;-73
2022/09/03 03:03:05;;;;;;;6.18;2.65;;;;;;;16.91;70.00;92620.28;2053451;69;20134;-72
2022/09/03 03:05:54;;;;;;;6.88;3.50;;;;;;;16.79;70.90;92622.66;2053372;69;20130;-73
2022/09/03 03:08:22;;;;;;;5.15;2.88;;;;;;;16.85;69.80;92622.88;2053479;70;20154;-75
2022/09/03 03:10:48;;;;;;;5.45;2.70;;;;;;;16.82;69.92;92622.09;2053397;69;20141;-75
2022/09/03 03:13:15;;;;;;;4.22;2.90;;;;;;;16.66;69.66;92615.78;2053766;70;20150;-76
2022/09/03 03:15:41;;;;;;;7.35;3.10;;;;;;;16.79;69.76;92619.81;2053744;70;20606;-76
2022/09/03 03:18:10;;;;;;;4.40;2.85;;;;;;;16.79;69.98;92620.56;2065298;69;20262;-76
2022/09/03 03:20:37;;;;;;;3.45;2.55;;;;;;;16.69;70.87;92623.00;2068021;69;20238;-76
2022/09/03 03:23:05;;;;;;;7.32;2.90;;;;;;;16.74;69.90;92616.09;2071313;69;20159;-75
2022/09/03 03:25:33;;;;;;;5.13;3.05;;;;;;;16.62;71.06;92616.34;2071154;69;20235;-76
2022/09/03 03:27:59;;;;;;;4.28;2.58;;;;;;;16.67;70.47;92614.38;2071395;69;20144;-75
2022/09/03 03:30:26;;;;;;;4.45;2.78;;;;;;;16.60;70.45;92621.25;2071298;69;20186;-74
2022/09/03 03:32:53;;;;;;;6.93;2.53;;;;;;;16.54;70.00;92621.75;2071370;69;20153;-73
2022/09/03 03:35:19;;;;;;;3.08;2.50;;;;;;;16.50;70.99;92618.75;2071238;69;20147;-77
2022/09/03 03:37:45;;;;;;;5.45;3.15;;;;;;;16.25;71.93;92620.66;2071271;69;20156;-75
2022/09/03 03:40:11;;;;;;;4.18;2.65;;;;;;;16.06;72.80;92615.66;2071187;69;20152;-76
2022/09/03 03:42:37;;;;;;;5.80;3.28;;;;;;;16.33;71.28;92619.50;2067824;69;20144;-75
2022/09/03 03:45:04;;;;;;;3.95;2.83;;;;;;;16.38;70.77;92616.16;2071345;69;20145;-76
2022/09/03 03:47:30;;;;;;;4.75;2.88;;;;;;;16.28;71.26;92618.63;2071233;69;20171;-76
2022/09/03 03:49:59;;;;;;;5.82;2.78;;;;;;;16.24;71.21;92627.00;2071399;69;20620;-77
2022/09/03 03:52:26;;;;;;;3.63;2.72;;;;;;;16.28;70.67;92630.00;2071303;69;20156;-76
2022/09/03 03:54:52;;;;;;;4.15;2.72;;;;;;;16.24;70.72;92635.50;2067688;69;20577;-74
2022/09/03 03:57:19;;;;;;;4.97;2.78;;;;;;;16.23;69.38;92637.63;2071262;69;20163;-73
2022/09/03 03:59:46;;;;;;;6.53;3.13;;;;;;;16.14;71.23;92638.69;2071269;69;20272;-75
2022/09/03 04:02:12;;;;;;;3.70;2.88;;;;;;;16.22;70.37;92624.09;2071322;69;20160;-75
2022/09/03 04:04:37;;;;;;;5.53;3.00;;;;;;;16.01;72.13;92628.22;2071128;69;20495;-75
2022/09/03 04:07:03;;;;;;;7.53;3.25;;;;;;;16.13;70.52;92630.81;2071194;69;20144;-75
2022/09/03 04:09:29;;;;;;;4.68;2.90;;;;;;;16.12;70.43;92626.50;2071108;69;20237;-74
2022/09/03 04:11:56;;;;;;;2.80;2.42;;;;;;;16.10;70.54;92624.31;2071275;69;20148;-77
2022/09/03 04:14:26;;;;;;;4.95;2.88;;;;;;;16.07;70.27;92625.63;2071199;69;20164;-77
2022/09/03 04:16:53;;;;;;;4.40;2.83;;;;;;;16.07;70.34;92630.56;2071127;69;20195;-75
2022/09/03 04:19:19;;;;;;;4.43;2.40;;;;;;;16.05;69.91;92630.50;2071153;69;20148;-77
2022/09/03 04:21:45;;;;;;;4.13;3.22;;;;;;;15.92;70.77;92640.63;2071208;69;20124;-76
2022/09/03 04:24:11;;;;;;;7.30;3.25;;;;;;;15.96;71.04;92638.69;2071689;69;20478;-77
2022/09/03 04:26:37;;;;;;;5.07;3.25;;;;;;;16.03;70.42;92631.13;2068294;69;20223;-77
2022/09/03 04:29:05;;;;;;;4.68;3.13;;;;;;;16.00;71.22;92635.28;2071782;69;20148;-76
2022/09/03 04:31:32;;;;;;;4.45;2.90;;;;;;;16.01;70.59;92633.91;2071783;69;20148;-76
2022/09/03 04:33:58;;;;;;;3.55;2.80;;;;;;;16.09;70.08;92625.72;2071625;69;20527;-77
2022/09/03 04:36:25;;;;;;;5.40;3.20;;;;;;;16.13;70.41;92622.31;2068356;69;20147;-76
2022/09/03 04:38:53;;;;;;;4.68;2.55;;;;;;;15.88;72.06;92612.81;2068294;69;20144;-77
2022/09/03 04:41:24;;;;;;;5.85;2.70;;;;;;;15.96;71.57;92615.25;2071555;69;20245;-74
2022/09/03 04:43:51;;;;;;;7.28;2.80;;;;;;;16.10;70.02;92617.91;2071696;69;20163;-76
2022/09/03 04:46:19;;;;;;;3.33;2.80;;;;;;;15.97;70.60;92628.06;2068291;69;20159;-76
2022/09/03 04:48:50;;;;;;;4.50;2.90;;;;;;;15.92;71.73;92621.50;2071746;69;20156;-77
2022/09/03 04:51:21;;;;;;;5.03;2.80;;;;;;;15.89;71.54;92625.63;2068335;69;20299;-77
2022/09/03 04:53:52;;;;;;;3.22;2.33;;;;;;;16.06;69.23;92629.84;2071651;69;20167;-77
2022/09/03 04:56:25;;;;;;;4.85;2.55;;;;;;;15.95;70.46;92628.72;2068275;69;20492;-74
2022/09/03 04:59:00;;;;;;;4.35;2.50;;;;;;;15.95;69.58;92617.38;2071696;69;20152;-75
2022/09/03 05:01:28;;;;;;;4.50;2.55;;;;;;;15.78;71.29;92626.59;2071659;69;20303;-74
2022/09/03 05:03:56;;;;;;;4.75;2.60;;;;;;;15.86;70.75;92617.69;2071600;69;20580;-75
2022/09/03 05:06:24;;;;;;;3.88;2.60;;;;;;;15.92;70.10;92627.16;2071557;69;20239;-75
2022/09/03 05:08:51;;;;;;;6.88;2.97;;;;;;;15.66;71.38;92632.50;2071514;69;20121;-73
2022/09/03 05:11:18;;;;;;;3.83;2.88;;;;;;;15.81;70.86;92633.09;2071487;69;20592;-75
2022/09/03 05:13:52;;;;;;;4.47;2.75;;;;;;;15.77;70.93;92628.00;2065402;69;20505;-73
2022/09/03 05:16:20;;;;;;;5.68;2.53;;;;;;;15.85;70.43;92636.09;2068177;69;20149;-75
2022/09/03 05:18:46;;;;;;;4.10;2.88;;;;;;;15.78;71.06;92634.41;2071315;69;20159;-75
2022/09/03 05:21:17;;;;;;;5.22;3.00;;;;;;;15.77;71.14;92625.16;2071364;69;20151;-76
2022/09/03 05:23:47;;;;;;;5.68;2.80;;;;;;;15.79;70.86;92627.34;2067950;69;20267;-72
2022/09/03 05:26:17;;;;;;;4.47;3.00;;;;;;;15.81;71.38;92631.00;2071189;69;20159;-75
2022/09/03 05:28:43;;;;;;;4.00;2.63;;;;;;;15.82;71.64;92634.56;2071311;69;20211;-72
2022/09/03 05:31:11;;;;;;;7.60;2.60;;;;;;;15.62;73.10;92637.97;2071276;69;20144;-74
2022/09/03 05:33:42;;;;;;;6.15;2.90;;;;;;;15.44;72.91;92640.06;2071308;69;20236;-75
2022/09/03 05:36:12;;;;;;;4.15;2.67;;;;;;;15.55;72.59;92641.97;2067981;69;20223;-74
2022/09/03 05:38:38;;;;;;;4.78;2.97;;;;;;;15.77;71.28;92635.78;2071292;69;20255;-74
2022/09/03 05:41:10;;;;;;;7.00;2.65;;;;;;;15.81;71.31;92647.31;2071129;69;20723;-74
2022/09/03 05:43:36;;;;;;;3.45;2.80;;;;;;;15.76;71.40;92649.25;2067845;69;20141;-75
2022/09/03 05:46:05;;;;;;;5.55;3.15;;;;;;;15.77;71.95;92641.47;2071280;69;20172;-75
2022/09/03 05:48:32;;;;;;;5.07;3.13;;;;;;;15.81;71.81;92650.88;2071288;69;20501;-74
2022/09/03 05:51:06;;;;;;;4.28;3.10;;;;;;;15.85;71.50;92661.63;2071251;69;20617;-73
2022/09/03 05:53:34;;;;;;;8.93;4.55;;;;;;;15.91;71.60;92656.94;2071240;69;20160;-73
2022/09/03 05:56:02;;;;;;;4.55;2.97;;;;;;;15.93;70.83;92659.84;2067722;69;20217;-75
2022/09/03 05:58:38;;;;;;;3.90;2.92;;;;;;;16.05;70.30;92653.22;2071312;69;20202;-73
2022/09/03 06:01:17;;;;;;;3.97;2.90;;;;;;;16.08;72.65;92661.19;2067914;69;20480;-73
2022/09/03 06:03:44;;;;;;;8.25;3.40;;;;;;;15.89;73.30;92644.75;2071278;69;20160;-73
2022/09/03 06:06:12;;;;;;;6.40;3.53;;;;;;;16.23;71.98;92642.56;2071217;69;20145;-74
2022/09/03 06:08:43;;;;;;;7.65;2.80;;;;;;;16.55;66.94;92640.25;2071227;69;20140;-74
2022/09/03 06:11:10;;;;;;;6.65;3.92;;;;;;;16.64;66.66;92636.34;2071191;69;20160;-74
2022/09/03 06:13:37;;;;;;;4.32;3.30;;;;;;;16.81;64.97;92634.09;2071202;69;20292;-73
2022/09/03 06:16:05;;;;;;;5.05;3.10;;;;;;;16.61;69.21;92634.06;2071180;69;20197;-74
2022/09/03 06:18:31;;;;;;;5.60;3.10;;;;;;;16.65;69.68;92640.63;2071344;69;20178;-73
2022/09/03 06:20:59;;;;;;;6.05;2.88;;;;;;;16.75;69.04;92643.88;2068009;69;20638;-74
2022/09/03 06:23:25;;;;;;;6.07;3.10;;;;;;;16.67;71.36;92652.06;2071384;69;20179;-74
2022/09/03 06:26:06;;;;;;;4.30;2.80;;;;;;;16.69;72.04;92635.09;2071211;69;20240;-74
2022/09/03 06:28:34;;;;;;;4.30;2.63;;;;;;;16.81;70.85;92636.94;2071317;69;20144;-73
2022/09/03 06:31:01;;;;;;;4.63;3.10;;;;;;;16.45;73.70;92643.44;2071388;69;20176;-74
2022/09/03 06:33:32;;;;;;;5.13;3.15;;;;;;;16.46;73.27;92644.16;2071338;69;20175;-74
2022/09/03 06:36:00;;;;;;;9.25;3.40;;;;;;;16.59;72.10;92648.22;2071319;69;20159;-74
2022/09/03 06:38:30;;;;;;;6.72;3.28;;;;;;;16.83;72.12;92649.13;2071430;69;20148;-72
2022/09/03 06:41:02;;;;;;;6.20;3.83;;;;;;;17.00;71.20;92647.63;2071163;69;20258;-73
2022/09/03 06:43:29;;;;;;;7.00;3.42;;;;;;;16.96;71.30;92639.66;2067998;69;20311;-73
2022/09/03 06:45:58;;;;;;;4.38;3.22;;;;;;;17.09;68.43;92637.25;2071181;69;20250;-72
2022/09/03 06:48:24;;;;;;;5.95;3.42;;;;;;;17.12;69.81;92636.66;2071267;69;20243;-72
2022/09/03 06:51:02;;;;;;;7.28;3.40;;;;;;;17.51;69.45;92635.16;2071261;69;20183;-72
2022/09/03 06:53:30;;;;;;;17.17;3.72;;;;;;;17.85;70.06;92643.44;2071346;69;20152;-73
2022/09/03 06:55:58;;;;;;;4.68;3.30;;;;;;;18.09;66.80;92649.91;2071145;69;20163;-73
2022/09/03 06:58:27;;;;;;;5.53;3.00;;;;;;;18.42;68.69;92653.81;2071313;69;20651;-74
2022/09/03 07:00:53;;;;;;;10.38;3.20;;;;;;;18.62;66.49;92653.69;2071361;69;20184;-72
2022/09/03 07:03:20;;;;;;;5.38;2.70;;;;;;;18.77;63.59;92649.88;2071128;69;20227;-73
2022/09/03 07:05:46;;;;;;;3.03;2.50;;;;;;;18.75;61.68;92655.53;2071253;69;20600;-73
2022/09/03 07:08:12;;;;;;;4.07;2.58;;;;;;;18.45;62.37;92649.59;2071202;69;20144;-74
2022/09/03 07:10:38;;;;;;;4.40;2.70;;;;;;;18.53;61.51;92639.19;2071266;69;20228;-74
2022/09/03 07:13:07;;;;;;;4.40;2.72;;;;;;;18.54;62.52;92643.47;2071436;69;20595;-75
2022/09/03 07:15:33;;;;;;;4.32;2.50;;;;;;;18.65;64.43;92638.84;2071155;69;20187;-73
2022/09/03 07:17:59;;;;;;;4.25;2.55;;;;;;;18.75;64.26;92642.00;2071387;69;20156;-72
2022/09/03 07:20:26;;;;;;;3.47;2.50;;;;;;;18.80;63.88;92637.16;2071219;69;20152;-73
2022/09/03 07:22:55;;;;;;;4.20;2.60;;;;;;;18.96;62.89;92628.31;2071304;69;20190;-73
2022/09/03 07:25:22;;;;;;;5.63;2.50;;;;;;;18.98;65.80;92640.53;2071002;69;20132;-73
2022/09/03 07:27:50;;;;;;;3.33;2.70;;;;;;;18.98;65.31;92639.81;2071285;69;20184;-74
2022/09/03 07:30:18;;;;;;;3.75;2.50;;;;;;;18.96;66.52;92646.16;2071200;69;20140;-74
2022/09/03 07:32:45;;;;;;;2.72;2.47;;;;;;;18.96;65.32;92651.16;2071201;69;20175;-72
2022/09/03 07:35:12;;;;;;;4.00;2.60;;;;;;;19.00;64.20;92648.41;2067843;69;20236;-72
2022/09/03 07:37:41;;;;;;;5.03;2.70;;;;;;;19.19;64.03;92658.22;2071189;69;20140;-73
2022/09/03 07:40:09;;;;;;;14.85;2.72;;;;;;;19.15;63.46;92653.16;2071091;69;20168;-74
2022/09/03 07:42:37;;;;;;;3.70;2.53;;;;;;;19.36;61.99;92650.84;2071088;69;20176;-74
2022/09/03 07:45:11;;;;;;;4.25;2.80;;;;;;;19.36;61.87;92653.69;2071237;69;20148;-74
2022/09/03 07:47:37;;;;;;;3.20;2.78;;;;;;;19.61;60.89;92650.13;2071401;69;20180;-74
2022/09/03 07:50:04;;;;;;;4.80;2.83;;;;;;;19.81;61.79;92647.06;2071325;69;20152;-75
2022/09/03 07:52:30;;;;;;;6.55;2.72;;;;;;;20.06;62.21;92639.84;2071272;69;20164;-73
2022/09/03 07:54:58;;;;;;;4.53;2.45;;;;;;;20.74;59.64;92642.16;2071013;69;20179;-74
2022/09/03 07:57:23;;;;;;;4.53;2.50;;;;;;;20.74;57.70;92645.75;2071199;69;20571;-74
2022/09/03 07:59:49;;;;;;;3.83;2.30;;;;;;;21.58;56.64;92650.38;2071245;69;20246;-74
2022/09/03 08:02:14;;;;;;;2.92;2.45;;;;;;;21.60;53.42;92653.25;2071106;69;20171;-74
2022/09/03 08:04:40;;;;;;;4.03;2.47;;;;;;;21.92;52.83;92643.81;2071113;69;20155;-74
2022/09/03 08:07:06;;;;;;;4.38;2.33;;;;;;;22.41;50.29;92636.78;2071186;69;20541;-73
2022/09/03 08:09:32;;;;;;;2.60;2.20;;;;;;;21.55;53.54;92632.41;2071020;69;20496;-74
2022/09/03 08:11:57;;;;;;;1.90;1.80;;;;;;;22.42;49.68;92637.50;2071252;69;20155;-74
2022/09/03 08:14:23;;;;;;;1.70;1.60;;;;;;;22.46;50.34;92640.44;2071284;69;20291;-72
2022/09/03 08:16:48;;;;;;;1.77;1.67;;;;;;;22.38;50.36;92646.03;2071083;69;20221;-72
2022/09/03 08:19:17;;;;;;;1.90;1.80;;;;;;;22.41;50.72;92648.25;2071042;69;20136;-72
2022/09/03 08:21:43;;;;;;;3.25;1.75;;;;;;;22.33;52.19;92648.13;2071132;69;20232;-74
2022/09/03 08:24:10;;;;;;;3.05;1.80;;;;;;;22.38;53.51;92660.38;2071094;69;20125;-72
2022/09/03 08:26:40;;;;;;;3.15;2.00;;;;;;;21.72;52.17;92650.63;2071109;69;20159;-73
2022/09/03 08:29:05;;;;;;;3.72;2.08;;;;;;;21.68;51.76;92649.84;2071163;69;20144;-72
2022/09/03 08:31:32;;;;;;;3.45;2.35;;;;;;;21.60;52.93;92655.41;2070988;69;20151;-72
2022/09/03 08:34:05;;;;;;;2.30;1.85;;;;;;;21.43;51.14;92665.81;2070959;69;20148;-73
2022/09/03 08:36:32;;;;;;;;;;;;;;;21.55;52.19;92654.59;2071409;69;20191;-73
2022/09/03 08:39:06;;;;;;;2.55;1.85;;;;;;;22.29;51.26;92656.66;2071067;69;20171;-73
2022/09/03 08:41:36;;;;;;;2.00;1.80;;;;;;;22.50;50.44;92664.19;2071126;69;20138;-73
2022/09/03 08:44:23;;;;;;;3.25;2.10;;;;;;;21.69;52.21;92654.88;2070989;69;20144;-73
2022/09/03 08:47:05;;;;;;;2.63;1.90;;;;;;;22.19;50.78;92656.50;2071073;69;20142;-74
2022/09/03 08:49:40;;;;;;;3.10;1.80;;;;;;;22.61;48.38;92656.44;2071223;69;20148;-74
2022/09/03 08:52:25;;;;;;;2.38;1.75;;;;;;;23.44;49.51;92659.03;2071131;69;20708;-74
2022/09/03 08:54:54;;;;;;;1.92;1.63;;;;;;;23.79;47.04;92658.03;2070954;69;20151;-73
2022/09/03 08:57:20;;;;;;;1.75;1.50;;;;;;;24.20;45.95;92652.00;2067776;69;20489;-74
2022/09/03 08:59:53;;;;;;;2.05;1.42;;;;;;;24.30;45.93;92654.94;2071127;69;20164;-75
2022/09/03 09:02:40;;;;;;;1.60;1.13;;;;;;;23.92;45.59;92658.91;2067801;69;20584;-75
2022/09/03 09:05:11;;;;;;;1.30;1.20;;;;;;;24.09;44.81;92649.00;2071195;69;20163;-75
2022/09/03 09:07:52;;;;;;;2.08;1.30;;;;;;;24.12;42.82;92644.00;2071135;69;20209;-74
2022/09/03 09:10:43;;;;;;;1.30;1.20;;;;;;;24.68;42.54;92653.84;2071407;69;20578;-74
2022/09/03 09:13:35;;;;;;;1.33;1.23;;;;;;;24.85;42.78;92647.50;2071511;69;20146;-74
2022/09/03 09:16:23;;;;;;;1.63;1.40;;;;;;;24.71;42.57;92650.28;2071405;69;20147;-74
2022/09/03 09:18:57;;;;;;;1.40;1.30;;;;;;;23.41;41.93;92643.19;2071615;69;20656;-73
2022/09/03 09:21:29;;;;;;;2.22;1.40;;;;;;;23.39;44.00;92643.19;2071598;69;20136;-74
2022/09/03 09:23:59;;;;;;;2.20;1.20;;;;;;;22.97;43.98;92641.22;2071591;69;20163;-73
2022/09/03 09:26:25;;;;;;;2.10;1.10;;;;;;;23.02;43.19;92634.81;2071433;69;20511;-75
2022/09/03 09:28:58;;;;;;;1.10;1.00;;;;;;;23.99;43.35;92640.28;2071582;69;20592;-75
2022/09/03 09:31:29;;;;;;;1.40;1.05;;;;;;;24.43;42.75;92638.56;2071523;69;20209;-75
2022/09/03 09:34:08;;;;;;;1.10;1.00;;;;;;;24.55;43.50;92642.22;2071538;69;20145;-75
2022/09/03 09:36:54;;;;;;;3.60;1.25;;;;;;;24.59;43.55;92650.16;2071502;69;20190;-74
2022/09/03 09:39:21;;;;;;;1.30;1.20;;;;;;;23.81;44.18;92642.97;2067979;69;20239;-75
2022/09/03 09:42:08;;;;;;;1.30;1.20;;;;;;;23.76;44.43;92644.34;2071395;69;20168;-74
2022/09/03 09:44:42;;;;;;;1.80;1.40;;;;;;;23.84;44.27;92644.44;2071429;69;20204;-73
2022/09/03 09:47:30;;;;;;;4.57;1.30;;;;;;;23.54;43.98;92644.78;2071406;69;20202;-73
2022/09/03 09:50:02;;;;;;;1.30;1.20;;;;;;;23.92;43.77;92649.56;2071473;69;20152;-75
2022/09/03 09:52:30;;;;;;;2.92;1.25;;;;;;;24.04;43.94;92646.78;2068068;69;20160;-74
2022/09/03 09:55:10;;;;;;;1.45;1.25;;;;;;;23.95;44.52;92645.25;2071241;69;20124;-74
2022/09/03 09:57:37;;;;;;;1.63;1.42;;;;;;;23.84;47.15;92645.16;2071443;69;20155;-74
2022/09/03 10:00:15;;;;;;;1.27;1.00;;;;;;;23.83;48.11;92634.38;2071437;69;20152;-75
2022/09/03 10:02:53;;;;;;;3.17;1.27;;;;;;;23.88;46.72;92633.00;2072028;69;20144;-75
2022/09/03 10:05:23;;;;;;;2.67;1.30;;;;;;;23.95;47.07;92631.59;2071436;69;20137;-75
2022/09/03 10:08:04;;;;;;;1.60;1.38;;;;;;;23.72;48.46;92635.69;2071353;69;20160;-75
2022/09/03 10:10:37;;;;;;;3.95;1.48;;;;;;;23.45;44.83;92632.47;2071411;69;20461;-75
2022/09/03 10:13:04;;;;;;;5.15;2.05;;;;;;;23.34;45.22;92637.38;2071470;69;20588;-76
2022/09/03 10:15:54;;;;;;;2.53;1.60;;;;;;;23.11;44.34;92629.19;2071294;69;20172;-75
2022/09/03 10:18:44;;;;;;;1.38;1.27;;;;;;;23.24;44.26;92630.81;2068072;69;20136;-75
2022/09/03 10:21:14;;;;;;;3.42;1.50;;;;;;;22.88;45.28;92628.88;2071496;69;20148;-75
2022/09/03 10:23:55;;;;;;;2.42;1.70;;;;;;;23.04;46.24;92631.97;2071537;69;20140;-74
2022/09/03 10:26:30;;;;;;;4.88;1.40;;;;;;;23.57;47.73;92629.03;2071301;69;20349;-74
2022/09/03 10:29:00;;;;;;;2.38;1.77;;;;;;;23.59;46.20;92629.03;2071455;69;20143;-75
2022/09/03 10:31:52;;;;;;;2.58;1.67;;;;;;;23.98;46.38;92626.63;2071493;69;20144;-74
2022/09/03 10:34:44;;;;;;;1.98;1.70;;;;;;;24.15;45.24;92633.25;2071417;69;20148;-73
2022/09/03 10:37:39;;;;;;;1.60;1.50;;;;;;;24.25;44.91;92636.22;2071540;69;20140;-74
2022/09/03 10:40:13;;;;;;;3.90;1.70;;;;;;;24.01;43.23;92628.81;2071422;69;20191;-74
2022/09/03 10:42:51;;;;;;;2.22;1.50;;;;;;;24.42;44.33;92628.44;2071404;69;20148;-73
2022/09/03 10:45:46;;;;;;;2.38;1.80;;;;;;;24.50;43.45;92628.53;2071753;69;20176;-74
2022/09/03 10:48:43;;;;;;;3.55;1.98;;;;;;;24.42;43.47;92625.56;2071356;69;20136;-73
2022/09/03 10:51:26;;;;;;;2.20;1.73;;;;;;;24.34;43.44;92620.47;2071473;69;20240;-73
2022/09/03 10:54:16;;;;;;;2.10;1.92;;;;;;;23.66;44.03;92621.97;2071365;69;20159;-73
2022/09/03 10:57:12;;;;;;;2.55;1.95;;;;;;;24.16;43.95;92626.06;2071035;69;20582;-72
2022/09/03 10:59:53;;;;;;;2.72;2.05;;;;;;;23.73;44.24;92617.00;2070841;69;20176;-72
2022/09/03 11:02:30;;;;;;;3.38;1.80;;;;;;;24.31;43.64;92624.75;2071344;69;20135;-73
2022/09/03 11:05:15;;;;;;;1.70;1.60;;;;;;;23.25;45.13;92615.72;2071254;69;20129;-74
2022/09/03 11:07:48;;;;;;;3.35;1.92;;;;;;;23.38;45.02;92613.75;2071071;69;20168;-74
2022/09/03 11:10:39;;;;;;;3.05;1.92;;;;;;;23.22;45.58;92608.50;2067633;69;20248;-72
2022/09/03 11:13:20;;;;;;;3.30;1.80;;;;;;;22.82;46.10;92600.81;2070477;69;20156;-74
2022/09/03 11:15:46;;;;;;;4.03;1.80;;;;;;;22.61;46.59;92606.94;2067839;69;20144;-75
2022/09/03 11:18:27;;;;;;;4.13;1.80;;;;;;;22.94;45.95;92599.53;2071029;69;20132;-73
2022/09/03 11:21:03;;;;;;;2.95;1.60;;;;;;;23.51;45.33;92600.97;2071021;69;20173;-74
2022/09/03 11:23:36;;;;;;;3.08;1.73;;;;;;;23.41;45.30;92589.34;2070959;69;20147;-75
2022/09/03 11:26:07;;;;;;;2.90;1.75;;;;;;;23.68;45.21;92589.66;2071027;69;20132;-74
2022/09/03 11:28:54;;;;;;;3.13;2.00;;;;;;;24.09;45.00;92587.88;2071320;69;20313;-77
2022/09/03 11:31:42;;;;;;;4.50;1.70;;;;;;;24.03;43.70;92584.97;2071021;69;20156;-74
2022/09/03 11:34:14;;;;;;;2.72;1.67;;;;;;;23.92;44.63;92583.44;2070994;69;20212;-72
2022/09/03 11:36:41;;;;;;;4.07;2.00;;;;;;;24.13;45.53;92581.47;2071102;69;20125;-73
2022/09/03 11:39:32;;;;;;;1.65;1.52;;;;;;;24.14;44.63;92582.91;2071232;69;20635;-73
2022/09/03 11:42:06;;;;;;;2.00;1.70;;;;;;;23.49;43.96;92583.69;2071379;69;20152;-73
2022/09/03 11:44:43;;;;;;;2.63;2.10;;;;;;;23.99;44.60;92579.91;2068160;69;20137;-72
2022/09/03 11:47:42;;;;;;;2.75;2.20;;;;;;;24.26;43.76;92580.84;2070526;69;20151;-72
2022/09/03 11:50:24;;;;;;;1.92;1.50;;;;;;;23.51;43.48;92583.72;2067044;69;20247;-73
2022/09/03 11:53:10;;;;;;;2.00;1.67;;;;;;;23.67;44.18;92579.59;2064471;69;20255;-73
2022/09/03 11:56:05;;;;;;;2.22;1.80;;;;;;;23.97;44.33;92582.78;2066822;69;20276;-74
2022/09/03 11:58:33;;;;;;;2.50;1.75;;;;;;;24.13;43.76;92582.16;2065866;69;20152;-74
2022/09/03 12:01:11;;;;;;;2.40;1.73;;;;;;;24.20;43.36;92583.69;2067399;69;20248;-75
2022/09/03 12:03:37;;;;;;;2.10;1.75;;;;;;;24.02;43.45;92575.63;2070927;69;20327;-74